AirNav   Everest Fuels
 
 465 users online  

9AK5 Sky Harbor Airport
Anchorage, Alaska, USA

GOING TO ANCHORAGE?


FAA INFORMATION EFFECTIVE 16 JULY 2020

Location

FAA Identifier: 9AK5
Lat/Long: 61-06-59.3300N 149-49-07.5700W
61-06.988833N 149-49.126167W
61.1164806,-149.8187694
(estimated)
Elevation: 340 ft. / 104 m (estimated)
Variation: 25E (1985)
From city: 7 miles SE of ANCHORAGE, AK
Time zone: UTC -8 (UTC -9 during Standard Time)
Zip code: 99516

Airport Operations

Airport use: Private use. Permission required prior to landing
Activation date: 06/1962
Control tower: no
ARTCC: ANCHORAGE CENTER
FSS: KENAI FLIGHT SERVICE STATION [907-283-7211]
Attendance: UNATNDD
Wind indicator: yes
Segmented circle: no

Airport Communications

CTAF: 122.9
WX ASOS at MRI (6 nm N): 124.25 (907-271-5277)
WX ASOS at LHD (6 nm NW): PHONE 907-245-5432
WX ASOS at ANC (6 nm NW): PHONE 907-271-5278
WX ASOS at FRN (10 nm NE): 134.25

Nearby radio navigation aids

VOR radial/distance  VOR name  Freq  Var
TEDr109/5.1ANCHORAGE VOR/DME113.1518E
BGQr152/27.5BIG LAKE VORTAC112.5019E

 
NDB name  Hdg/Dist  Freq  Var  ID
CAMPBELL LAKE100/7.433816ECMQ -.-. -- --.-

Airport Services

Airframe service: NONE
Powerplant service: NONE
Bottled oxygen: NONE
Bulk oxygen: NONE

Runway Information

Runway 16/34

Dimensions: 1800 x 70 ft. / 549 x 21 m
Surface: gravel
Operational restrictions: LAND RWY 34 & TKOF RWY 16.
RUNWAY 16  RUNWAY 34
Traffic pattern: leftleft
Markings: nonenone
Runway end identifier lights: nono
Obstructions: hill/trees, 1200 ft. from runway, 7:1 slope to clear
HILL 1200' AND 50' HIGH.
road, 1000 ft. from runway, 1:1 slope to clear

Airport Ownership and Management from official FAA records

Ownership: Privately-owned
Owner: SKY HBR PRPTY OWNER ASSOC
11641 BARR RD.
ANCHORAGE, AK 99516
APPROXIMATELY 16 OWNERS.
Manager: GORDON A. LEONARD
11641 BARR RD
ANCHORAGE, AK 99516
Phone 907-345-4896

Airport Operational Statistics

Aircraft operations: avg 125/week *
77% local general aviation
23% transient general aviation
* for 12-month period ending 29 May 1979

Instrument Procedures

There are no published instrument procedures at 9AK5.

Some nearby airports with instrument procedures:

PAMR - Merrill Field Airport (6 nm N)
PANC - Ted Stevens Anchorage International Airport (6 nm NW)
PAED - Elmendorf Air Force Base (8 nm N)
PAFR - Bryant Army Airfield Heliport (10 nm NE)
PAGQ - Big Lake Airport (25 nm N)
 
Loc | Ops | Rwys | IFR | FBO | Links
Com | Nav | Svcs | Stats | Notes

Crowley
 
Area around 9AK5 (Sky Harbor Airport)
 
Road maps at: MapQuest Bing Google
 
Aerial photo
No photo
 
Sectional chart

 
Airport distance calculator
Flying to Sky Harbor Airport? Find the distance to fly.

From to 9AK5

Sunrise and sunset
Times for 06-Aug-2020
 Local
(UTC-8)
 Zulu
(UTC)
Morning civil twilight04:4912:49
Sunrise05:4913:49
Sunset22:2106:21
Evening civil twilight23:2107:21

Current date and time
Zulu (UTC)  06-Aug-2020 10:13:28
Local (UTC-8)  06-Aug-2020 02:13:28
 
METAR
PALH 
6nm NW 
060953Z 17006KT 10SM BKN080 16/09 A2959 RMK AO2 SLP019 T01610089 $
PAMR 
6nm N 
060953Z 00000KT 10SM BKN075 18/06 A2957 RMK AO2 SLP013 T01780061
PANC 
6nm NW 
060953Z 15016G24KT 10SM SCT075 BKN120 16/09 A2958 RMK AO2 PK WND 15026/0935 CIG 075 N SLP016 T01560094
PAED 
8nm N 
060956Z 04004KT 10SM OVC075 16/09 A2957 RMK AO2A SLP008 T01610088 $
PAFR 
10nm NE 
060958Z AUTO 16014KT 10SM OVC080 17/08 A2956 RMK AO2 SLP014 T01660078 $
TAF
PANC 
6nm NW 
060524Z 0606/0712 15018G26KT P6SM VCSH FEW045 BKN100 BKN250 FM061400 13007KT P6SM VCSH SCT060 OVC090 FM062000 16015G25KT P6SM VCSH SCT030 BKN050
PAED 
8nm N 
060200Z 0602/0708 19010G15KT 9999 SCT090 QNH2960INS BECMG 0606/0607 16006KT 9999 BKN060 QNH2941INS TX25/0602Z TN13/0612Z
NOTAMs
Click for the latest NOTAMs
NOTAMs are issued by the DoD/FAA and will open in a separate window not controlled by AirNav.

 

 
 

Would you like to see your business listed on this page?

 If your business provides an interesting product or service to pilots, flight crews, aircraft, or users of the Sky Harbor Airport, you should consider listing it here.  To start the listing process, click on the button below
 
Add a business
 

Other Pages about Sky Harbor Airport

Update a link
 
Copyright © AirNav, LLC. All rights reserved. Privacy Policy  Contact